Time;durP1;ratioP1;P1;durP2;ratioP2;P2;SDS_P1;SDS_P2;PMS_P1;PMS_P2;Temp;Humidity;BMP_temperature;BMP_pressure;BME280_temperature;BME280_humidity;BME280_pressure;Samples;Min_cycle;Max_cycle;Signal;HPM_P1;HPM_P2
2022/05/01 00:01:14;;;;;;;;;;;;;;;;;;5045797;28;20050;-80
2022/05/01 00:03:40;;;;;;;;;;;;;;;;;;5041093;28;19920;-80
2022/05/01 00:06:06;;;;;;;;;;;;;;;;;;5040304;28;19917;-79
2022/05/01 00:08:32;;;;;;;;;;;;;;;;;;5021473;28;19927;-80
2022/05/01 00:10:58;;;;;;;;;;;;;;;;;;5020235;28;19921;-80
2022/05/01 00:13:24;;;;;;;;;;;;;;;;;;4996157;28;20369;-79
2022/05/01 00:15:50;;;;;;;;;;;;;;;;;;5016856;28;19913;-80
2022/05/01 00:18:16;;;;;;;;;;;;;;;;;;4999323;28;20273;-80
2022/05/01 00:20:42;;;;;;;;;;;;;;;;;;4993609;28;19948;-79
2022/05/01 00:23:08;;;;;;;;;;;;;;;;;;5014560;28;19943;-79
2022/05/01 00:25:34;;;;;;;;;;;;;;;;;;5000683;28;19925;-80
2022/05/01 00:28:00;;;;;;;;;;;;;;;;;;5012856;28;20234;-80
2022/05/01 00:30:29;;;;;;;;;;;;;;;;;;5002197;28;19917;-79
2022/05/01 00:38:27;;;;;;;;;;;;;;;;;;5015289;28;20008;-80
2022/05/01 00:40:54;;;;;;;;;;;;;;;;;;4997517;28;20399;-79
2022/05/01 00:43:20;;;;;;;;;;;;;;;;;;4995197;28;19918;-79
2022/05/01 00:45:49;;;;;;;;;;;;;;;;;;4999041;28;19921;-80
2022/05/01 00:48:17;;;;;;;;;;;;;;;;;;5011443;28;19913;-80
2022/05/01 00:50:43;;;;;;;;;;;;;;;;;;4998765;28;19917;-79
2022/05/01 00:53:09;;;;;;;;;;;;;;;;;;5011495;28;19984;-80
2022/05/01 00:55:35;;;;;;;;;;;;;;;;;;4994455;28;19917;-79
2022/05/01 00:58:01;;;;;;;;;;;;;;;;;;5014360;28;19921;-80
2022/05/01 01:00:27;;;;;;;;;;;;;;;;;;5011611;28;19921;-79
2022/05/01 01:02:53;;;;;;;;;;;;;;;;;;4995636;28;19916;-80
2022/05/01 01:05:19;;;;;;;;;;;;;;;;;;4995932;28;20182;-80
2022/05/01 01:07:45;;;;;;;;;;;;;;;;;;5020414;28;21201;-79
2022/05/01 01:10:11;;;;;;;;;;;;;;;;;;5020683;28;20497;-82
2022/05/01 01:12:55;;;;;;;;;;;;;;;;;;5016304;28;19953;-79
2022/05/01 01:15:21;;;;;;;;;;;;;;;;;;5018899;28;19921;-80
2022/05/01 01:17:52;;;;;;;;;;;;;;;;;;5018658;28;19927;-80
2022/05/01 01:20:18;;;;;;;;;;;;;;;;;;5030988;28;19924;-80
2022/05/01 01:22:44;;;;;;;;;;;;;;;;;;5031056;28;19976;-79
2022/05/01 01:25:10;;;;;;;;;;;;;;;;;;5032506;28;19925;-80
2022/05/01 01:27:36;;;;;;;;;;;;;;;;;;5020477;28;19921;-80
2022/05/01 01:32:47;;;;;;;;;;;;;;;;;;5042307;28;20027;-80
2022/05/01 01:35:12;;;;;;;;;;;;;;;;;;5022304;28;20420;-80
2022/05/01 01:37:38;;;;;;;;;;;;;;;;;;5020730;28;19936;-80
2022/05/01 01:40:04;;;;;;;;;;;;;;;;;;5021883;28;20376;-79
2022/05/01 01:42:30;;;;;;;;;;;;;;;;;;5038076;28;19924;-80
2022/05/01 01:44:56;;;;;;;;;;;;;;;;;;5016716;28;19921;-79
2022/05/01 01:47:22;;;;;;;;;;;;;;;;;;5033140;28;20321;-79
2022/05/01 01:49:48;;;;;;;;;;;;;;;;;;5021484;28;20433;-79
2022/05/01 01:52:14;;;;;;;;;;;;;;;;;;5024488;28;20376;-79
2022/05/01 01:54:40;;;;;;;;;;;;;;;;;;5014118;28;20412;-80
2022/05/01 01:57:06;;;;;;;;;;;;;;;;;;5031641;28;19921;-80
2022/05/01 01:59:32;;;;;;;;;;;;;;;;;;5038378;28;20410;-80
2022/05/01 02:01:58;;;;;;;;;;;;;;;;;;5023340;28;19924;-80
2022/05/01 02:04:24;;;;;;;;;;;;;;;;;;5030472;28;19943;-79
2022/05/01 02:06:49;;;;;;;;;;;;;;;;;;5038102;28;20011;-79
2022/05/01 02:09:17;;;;;;;;;;;;;;;;;;5011300;28;19917;-81
2022/05/01 02:11:43;;;;;;;;;;;;;;;;;;5001850;28;19921;-81
2022/05/01 02:14:10;;;;;;;;;;;;;;;;;;5015700;28;20280;-79
2022/05/01 02:16:36;;;;;;;;;;;;;;;;;;5008961;28;19932;-80
2022/05/01 02:19:02;;;;;;;;;;;;;;;;;;5005352;28;19917;-80
2022/05/01 02:21:34;;;;;;;;;;;;;;;;;;5003891;28;19917;-81
2022/05/01 02:24:01;;;;;;;;;;;;;;;;;;5005510;28;19927;-80
2022/05/01 02:26:27;;;;;;;;;;;;;;;;;;4997409;28;22588;-80
2022/05/01 02:28:54;;;;;;;;;;;;;;;;;;5001197;28;20376;-80
2022/05/01 02:31:22;;;;;;;;;;;;;;;;;;5019414;28;19917;-79
2022/05/01 02:33:47;;;;;;;;;;;;;;;;;;5011832;28;19918;-80
2022/05/01 02:36:16;;;;;;;;;;;;;;;;;;4997503;28;19928;-80
2022/05/01 02:38:44;;;;;;;;;;;;;;;;;;5001454;28;19968;-80
2022/05/01 02:41:10;;;;;;;;;;;;;;;;;;5019688;28;19913;-80
2022/05/01 02:43:36;;;;;;;;;;;;;;;;;;5008866;28;19913;-80
2022/05/01 02:46:02;;;;;;;;;;;;;;;;;;5000256;28;20329;-76
2022/05/01 02:48:28;;;;;;;;;;;;;;;;;;5016215;28;20297;-76
2022/05/01 02:50:54;;;;;;;;;;;;;;;;;;5018780;28;19913;-76
2022/05/01 02:53:20;;;;;;;;;;;;;;;;;;5007646;28;20004;-76
2022/05/01 02:55:46;;;;;;;;;;;;;;;;;;5028957;28;20364;-76
2022/05/01 02:58:12;;;;;;;;;;;;;;;;;;4996912;28;19928;-76
2022/05/01 03:00:38;;;;;;;;;;;;;;;;;;5001611;28;19920;-77
2022/05/01 03:03:04;;;;;;;;;;;;;;;;;;5004444;28;20269;-76
2022/05/01 03:05:30;;;;;;;;;;;;;;;;;;5002781;28;19924;-76
2022/05/01 03:07:56;;;;;;;;;;;;;;;;;;5003109;28;19913;-76
2022/05/01 03:10:22;;;;;;;;;;;;;;;;;;5016684;28;20172;-77
2022/05/01 03:12:48;;;;;;;;;;;;;;;;;;5017523;28;19921;-76
2022/05/01 03:15:14;;;;;;;;;;;;;;;;;;5018038;28;20116;-77
2022/05/01 03:23:09;;;;;;;;;;;;;;;;;;5012942;28;20288;-76
2022/05/01 03:25:35;;;;;;;;;;;;;;;;;;4999548;28;19988;-76
2022/05/01 03:28:01;;;;;;;;;;;;;;;;;;5019737;28;19957;-77
2022/05/01 03:30:27;;;;;;;;;;;;;;;;;;5015700;28;19913;-76
2022/05/01 03:32:53;;;;;;;;;;;;;;;;;;5001402;28;19946;-76
2022/05/01 03:35:19;;;;;;;;;;;;;;;;;;5012590;28;19999;-76
2022/05/01 03:37:45;;;;;;;;;;;;;;;;;;5018075;28;19919;-77
2022/05/01 03:40:12;;;;;;;;;;;;;;;;;;5001157;28;19968;-79
2022/05/01 03:42:38;;;;;;;;;;;;;;;;;;5011736;28;20292;-79
2022/05/01 03:45:04;;;;;;;;;;;;;;;;;;5004934;28;19924;-80
2022/05/01 03:47:32;;;;;;;;;;;;;;;;;;5001827;28;20262;-80
2022/05/01 03:49:58;;;;;;;;;;;;;;;;;;5016980;28;20403;-79
2022/05/01 03:52:24;;;;;;;;;;;;;;;;;;5003297;28;20068;-80
2022/05/01 03:54:50;;;;;;;;;;;;;;;;;;5003913;28;19920;-80
2022/05/01 03:57:16;;;;;;;;;;;;;;;;;;5000790;28;19917;-79
2022/05/01 03:59:42;;;;;;;;;;;;;;;;;;5003557;28;19940;-80
2022/05/01 04:02:08;;;;;;;;;;;;;;;;;;5018206;28;19984;-80
2022/05/01 04:04:41;;;;;;;;;;;;;;;;;;4999243;28;20569;-79
2022/05/01 04:07:06;;;;;;;;;;;;;;;;;;5001285;28;20357;-80
2022/05/01 04:09:33;;;;;;;;;;;;;;;;;;5010226;28;19921;-80
2022/05/01 04:11:59;;;;;;;;;;;;;;;;;;5020123;28;20438;-80
2022/05/01 04:14:25;;;;;;;;;;;;;;;;;;5021216;28;20376;-80
2022/05/01 04:16:53;;;;;;;;;;;;;;;;;;5022118;28;19919;-80
2022/05/01 04:19:18;;;;;;;;;;;;;;;;;;5019393;28;19913;-80
2022/05/01 04:21:45;;;;;;;;;;;;;;;;;;5021252;28;19919;-80
2022/05/01 04:24:11;;;;;;;;;;;;;;;;;;5039735;28;20051;-79
2022/05/01 04:26:36;;;;;;;;;;;;;;;;;;5030051;28;20399;-79
2022/05/01 04:31:48;;;;;;;;;;;;;;;;;;5033693;28;19975;-80
2022/05/01 04:34:14;;;;;;;;;;;;;;;;;;5019461;28;20380;-80
2022/05/01 04:36:41;;;;;;;;;;;;;;;;;;5017981;28;20003;-80
2022/05/01 04:39:07;;;;;;;;;;;;;;;;;;5022672;28;19945;-80
2022/05/01 04:41:32;;;;;;;;;;;;;;;;;;5036583;28;19963;-79
2022/05/01 04:43:58;;;;;;;;;;;;;;;;;;5035623;28;19920;-80
2022/05/01 04:46:24;;;;;;;;;;;;;;;;;;5017762;28;20021;-79
2022/05/01 04:48:50;;;;;;;;;;;;;;;;;;5017333;28;20222;-80
2022/05/01 04:51:16;;;;;;;;;;;;;;;;;;5036116;28;19917;-80
2022/05/01 04:53:42;;;;;;;;;;;;;;;;;;5022853;28;20511;-80
2022/05/01 04:58:53;;;;;;;;;;;;;;;;;;5016574;28;19960;-79
2022/05/01 05:01:19;;;;;;;;;;;;;;;;;;5028148;28;19909;-80
2022/05/01 05:03:45;;;;;;;;;;;;;;;;;;5035613;28;20107;-79
2022/05/01 05:06:11;;;;;;;;;;;;;;;;;;5032960;28;20327;-81
2022/05/01 05:11:21;;;;;;;;;;;;;;;;;;5033631;28;20481;-80
2022/05/01 05:13:47;;;;;;;;;;;;;;;;;;5021105;28;19917;-79
2022/05/01 05:16:13;;;;;;;;;;;;;;;;;;5018435;28;19928;-80
2022/05/01 05:18:42;;;;;;;;;;;;;;;;;;5020566;28;19919;-79
2022/05/01 05:21:08;;;;;;;;;;;;;;;;;;5017395;28;20398;-79
2022/05/01 05:23:34;;;;;;;;;;;;;;;;;;5036882;28;19913;-79
2022/05/01 05:26:00;;;;;;;;;;;;;;;;;;5043693;28;19971;-79
2022/05/01 05:28:26;;;;;;;;;;;;;;;;;;5023316;28;19979;-79
2022/05/01 05:30:52;;;;;;;;;;;;;;;;;;5032656;28;20023;-80
2022/05/01 05:33:18;;;;;;;;;;;;;;;;;;5037910;28;19923;-80
2022/05/01 05:35:44;;;;;;;;;;;;;;;;;;5020267;28;19916;-79
2022/05/01 05:38:10;;;;;;;;;;;;;;;;;;5032100;28;19959;-80
2022/05/01 05:40:36;;;;;;;;;;;;;;;;;;5026201;28;19968;-79
2022/05/01 05:43:02;;;;;;;;;;;;;;;;;;5020847;28;19920;-80
2022/05/01 05:45:28;;;;;;;;;;;;;;;;;;5014739;28;19925;-79
2022/05/01 05:47:54;;;;;;;;;;;;;;;;;;5037993;28;19923;-80
2022/05/01 05:50:20;;;;;;;;;;;;;;;;;;5015672;28;20039;-79
2022/05/01 05:52:46;;;;;;;;;;;;;;;;;;5021805;28;20342;-80
2022/05/01 05:55:12;;;;;;;;;;;;;;;;;;5037674;28;20004;-81
2022/05/01 05:57:38;;;;;;;;;;;;;;;;;;5019709;28;20020;-81
2022/05/01 06:00:04;;;;;;;;;;;;;;;;;;5033012;28;20391;-82
2022/05/01 06:02:29;;;;;;;;;;;;;;;;;;5033725;28;19913;-79
2022/05/01 06:04:55;;;;;;;;;;;;;;;;;;5023292;28;19916;-79
2022/05/01 06:07:22;;;;;;;;;;;;;;;;;;5028554;28;20355;-79
2022/05/01 06:09:48;;;;;;;;;;;;;;;;;;5015030;28;19924;-79
2022/05/01 06:12:14;;;;;;;;;;;;;;;;;;5034464;28;19917;-79
2022/05/01 06:14:40;;;;;;;;;;;;;;;;;;5035810;28;19924;-79
2022/05/01 06:17:05;;;;;;;;;;;;;;;;;;5021081;28;20376;-80
2022/05/01 06:19:31;;;;;;;;;;;;;;;;;;5017812;28;19917;-79
2022/05/01 06:21:57;;;;;;;;;;;;;;;;;;5031151;28;20311;-79
2022/05/01 06:24:23;;;;;;;;;;;;;;;;;;5015534;28;19929;-80
2022/05/01 06:26:49;;;;;;;;;;;;;;;;;;5035799;28;19946;-79
2022/05/01 06:29:15;;;;;;;;;;;;;;;;;;5031239;28;20360;-79
2022/05/01 06:31:41;;;;;;;;;;;;;;;;;;5034523;28;19921;-79
2022/05/01 06:34:07;;;;;;;;;;;;;;;;;;5033540;28;19917;-80
2022/05/01 06:36:33;;;;;;;;;;;;;;;;;;5034001;28;19935;-80
2022/05/01 06:38:59;;;;;;;;;;;;;;;;;;5028264;28;19913;-79
2022/05/01 06:41:25;;;;;;;;;;;;;;;;;;5036418;28;19915;-79
2022/05/01 06:43:51;;;;;;;;;;;;;;;;;;5031791;28;19940;-79
2022/05/01 06:46:17;;;;;;;;;;;;;;;;;;5035322;28;19917;-80
2022/05/01 06:48:43;;;;;;;;;;;;;;;;;;5034006;28;19939;-80
2022/05/01 06:51:09;;;;;;;;;;;;;;;;;;5029442;28;19916;-81
2022/05/01 06:53:35;;;;;;;;;;;;;;;;;;5038631;28;19921;-79
2022/05/01 06:56:01;;;;;;;;;;;;;;;;;;5019680;28;19917;-79
2022/05/01 06:58:27;;;;;;;;;;;;;;;;;;5020362;28;19967;-79
2022/05/01 07:00:54;;;;;;;;;;;;;;;;;;5026430;28;20031;-80
2022/05/01 07:03:20;;;;;;;;;;;;;;;;;;5016173;28;19917;-79
2022/05/01 07:05:46;;;;;;;;;;;;;;;;;;5030353;28;19932;-80
2022/05/01 07:08:12;;;;;;;;;;;;;;;;;;5013798;28;19912;-79
2022/05/01 07:10:38;;;;;;;;;;;;;;;;;;5021681;28;20324;-79
2022/05/01 07:13:04;;;;;;;;;;;;;;;;;;5012664;28;20507;-79
2022/05/01 07:15:30;;;;;;;;;;;;;;;;;;5021602;28;20276;-79
2022/05/01 07:17:56;;;;;;;;;;;;;;;;;;4999667;28;19921;-79
2022/05/01 07:20:22;;;;;;;;;;;;;;;;;;4996867;28;20342;-79
2022/05/01 07:22:48;;;;;;;;;;;;;;;;;;5016179;28;19917;-79
2022/05/01 07:25:14;;;;;;;;;;;;;;;;;;5019712;28;19917;-79
2022/05/01 07:27:40;;;;;;;;;;;;;;;;;;5002415;28;20319;-80
2022/05/01 07:30:06;;;;;;;;;;;;;;;;;;4997833;28;19922;-79
2022/05/01 07:32:35;;;;;;;;;;;;;;;;;;5002535;28;19909;-80
2022/05/01 07:35:01;;;;;;;;;;;;;;;;;;5012667;28;20649;-80
2022/05/01 07:37:27;;;;;;;;;;;;;;;;;;5019232;28;19921;-79
2022/05/01 07:39:54;;;;;;;;;;;;;;;;;;5024092;28;19917;-80
2022/05/01 07:42:20;;;;;;;;;;;;;;;;;;5019772;28;19909;-79
2022/05/01 07:44:46;;;;;;;;;;;;;;;;;;5018330;28;19921;-79
2022/05/01 07:47:11;;;;;;;;;;;;;;;;;;5001569;28;19923;-79
2022/05/01 07:49:37;;;;;;;;;;;;;;;;;;5020709;28;20207;-80
2022/05/01 07:52:04;;;;;;;;;;;;;;;;;;5003719;28;20419;-79
2022/05/01 07:54:29;;;;;;;;;;;;;;;;;;5020743;28;19983;-78
2022/05/01 07:56:55;;;;;;;;;;;;;;;;;;5003417;28;19913;-79
2022/05/01 07:59:21;;;;;;;;;;;;;;;;;;5002401;28;19917;-79
2022/05/01 08:01:47;;;;;;;;;;;;;;;;;;5004771;28;20051;-80
2022/05/01 08:04:28;;;;;;;;;;;;;;;;;;5020899;28;19992;-79
2022/05/01 08:07:01;;;;;;;;;;;;;;;;;;5005071;28;19945;-79
2022/05/01 08:09:27;;;;;;;;;;;;;;;;;;5007829;28;19914;-79
2022/05/01 08:11:55;;;;;;;;;;;;;;;;;;5015050;28;19932;-79
2022/05/01 08:14:22;;;;;;;;;;;;;;;;;;5000903;28;20390;-80
2022/05/01 08:16:48;;;;;;;;;;;;;;;;;;5012198;28;19918;-79
2022/05/01 08:21:59;;;;;;;;;;;;;;;;;;5021253;28;19987;-80
2022/05/01 08:24:25;;;;;;;;;;;;;;;;;;5001192;28;19925;-79
2022/05/01 08:26:51;;;;;;;;;;;;;;;;;;5017779;28;20347;-80
2022/05/01 08:29:17;;;;;;;;;;;;;;;;;;5020696;28;20017;-79
2022/05/01 08:31:43;;;;;;;;;;;;;;;;;;5005188;28;19921;-80
2022/05/01 08:34:08;;;;;;;;;;;;;;;;;;5020936;28;19921;-79
2022/05/01 08:36:35;;;;;;;;;;;;;;;;;;5004084;28;19998;-79
2022/05/01 08:39:00;;;;;;;;;;;;;;;;;;5003022;28;19992;-80
2022/05/01 08:41:26;;;;;;;;;;;;;;;;;;5002527;28;19968;-80
2022/05/01 08:43:52;;;;;;;;;;;;;;;;;;5019953;28;20226;-80
2022/05/01 08:46:18;;;;;;;;;;;;;;;;;;5015209;28;20335;-80
2022/05/01 08:48:44;;;;;;;;;;;;;;;;;;5016967;28;19913;-80
2022/05/01 08:51:11;;;;;;;;;;;;;;;;;;5012536;28;20032;-80
2022/05/01 08:53:37;;;;;;;;;;;;;;;;;;5004327;28;20623;-79
2022/05/01 08:56:03;;;;;;;;;;;;;;;;;;5003362;28;19925;-79
2022/05/01 08:58:29;;;;;;;;;;;;;;;;;;5017443;28;20423;-79
2022/05/01 09:00:55;;;;;;;;;;;;;;;;;;5002024;28;19932;-80
2022/05/01 09:03:21;;;;;;;;;;;;;;;;;;5000247;28;19921;-79
2022/05/01 09:05:47;;;;;;;;;;;;;;;;;;5002329;28;20181;-80
2022/05/01 09:08:12;;;;;;;;;;;;;;;;;;5005221;28;20019;-80
2022/05/01 09:10:48;;;;;;;;;;;;;;;;;;5008879;28;20681;-80
2022/05/01 09:13:13;;;;;;;;;;;;;;;;;;5000722;28;19932;-80
2022/05/01 09:15:46;;;;;;;;;;;;;;;;;;4998662;28;19913;-79
2022/05/01 09:18:12;;;;;;;;;;;;;;;;;;5005378;28;19924;-80
2022/05/01 09:20:39;;;;;;;;;;;;;;;;;;5003760;28;19919;-80
2022/05/01 09:23:05;;;;;;;;;;;;;;;;;;5004990;28;19917;-80
2022/05/01 09:25:31;;;;;;;;;;;;;;;;;;5002694;28;19925;-80
2022/05/01 09:27:59;;;;;;;;;;;;;;;;;;5004707;28;19913;-80
2022/05/01 09:30:29;;;;;;;;;;;;;;;;;;5015628;28;20261;-80
2022/05/01 09:32:57;;;;;;;;;;;;;;;;;;5015153;28;20318;-80
2022/05/01 09:35:23;;;;;;;;;;;;;;;;;;4998213;28;19917;-79
2022/05/01 09:37:49;;;;;;;;;;;;;;;;;;5001342;28;19988;-80
2022/05/01 09:40:15;;;;;;;;;;;;;;;;;;5020336;28;20466;-80
2022/05/01 09:42:40;;;;;;;;;;;;;;;;;;5020217;28;20176;-81
2022/05/01 09:45:07;;;;;;;;;;;;;;;;;;5015710;28;19928;-80
2022/05/01 09:47:33;;;;;;;;;;;;;;;;;;5001617;28;19952;-81
2022/05/01 09:49:59;;;;;;;;;;;;;;;;;;5001831;28;19917;-81
2022/05/01 09:52:26;;;;;;;;;;;;;;;;;;5020973;28;20406;-80
2022/05/01 09:54:52;;;;;;;;;;;;;;;;;;4999654;28;20446;-80
2022/05/01 09:57:18;;;;;;;;;;;;;;;;;;5005549;28;19917;-80
2022/05/01 09:59:44;;;;;;;;;;;;;;;;;;5019317;28;20034;-80
2022/05/01 10:02:10;;;;;;;;;;;;;;;;;;5009902;28;20383;-79
2022/05/01 10:04:37;;;;;;;;;;;;;;;;;;5010475;28;19920;-81
2022/05/01 10:07:02;;;;;;;;;;;;;;;;;;5003845;28;19921;-79
2022/05/01 10:09:28;;;;;;;;;;;;;;;;;;5023009;28;20534;-79
2022/05/01 10:11:58;;;;;;;;;;;;;;;;;;5014140;28;19933;-79
2022/05/01 10:14:23;;;;;;;;;;;;;;;;;;5010320;28;20040;-80
2022/05/01 10:16:50;;;;;;;;;;;;;;;;;;4997200;28;20005;-80
2022/05/01 10:19:17;;;;;;;;;;;;;;;;;;4996306;28;19935;-80
2022/05/01 10:21:42;;;;;;;;;;;;;;;;;;4990485;28;19984;-80
2022/05/01 10:24:08;;;;;;;;;;;;;;;;;;4996313;28;19925;-79
2022/05/01 10:26:34;;;;;;;;;;;;;;;;;;5019167;28;19944;-80
2022/05/01 10:29:00;;;;;;;;;;;;;;;;;;4998281;28;20107;-80
2022/05/01 10:34:12;;;;;;;;;;;;;;;;;;5016244;28;19943;-79
2022/05/01 10:36:38;;;;;;;;;;;;;;;;;;5013294;28;19917;-79
2022/05/01 10:39:04;;;;;;;;;;;;;;;;;;5014925;28;20669;-80
2022/05/01 10:41:30;;;;;;;;;;;;;;;;;;5009586;28;20012;-79
2022/05/01 10:43:56;;;;;;;;;;;;;;;;;;5009549;28;19929;-80
2022/05/01 10:46:22;;;;;;;;;;;;;;;;;;5009517;28;20325;-79
2022/05/01 10:48:48;;;;;;;;;;;;;;;;;;5013220;28;20277;-80
2022/05/01 10:51:14;;;;;;;;;;;;;;;;;;4996388;28;19918;-79
2022/05/01 10:53:41;;;;;;;;;;;;;;;;;;5013513;28;19968;-79
2022/05/01 10:56:07;;;;;;;;;;;;;;;;;;5009935;28;19913;-79
2022/05/01 10:58:33;;;;;;;;;;;;;;;;;;4994560;28;20293;-80
2022/05/01 11:01:00;;;;;;;;;;;;;;;;;;4993728;28;19925;-80
2022/05/01 11:03:26;;;;;;;;;;;;;;;;;;5016677;28;19917;-79
2022/05/01 11:05:55;;;;;;;;;;;;;;;;;;5016296;28;20495;-79
2022/05/01 11:08:23;;;;;;;;;;;;;;;;;;4995631;28;19917;-79
2022/05/01 11:10:49;;;;;;;;;;;;;;;;;;4998129;28;20008;-80
2022/05/01 11:13:16;;;;;;;;;;;;;;;;;;5026410;28;19918;-79
2022/05/01 11:15:42;;;;;;;;;;;;;;;;;;5019375;28;20147;-79
2022/05/01 11:18:08;;;;;;;;;;;;;;;;;;5023198;28;19913;-79
2022/05/01 11:20:34;;;;;;;;;;;;;;;;;;5030303;28;19917;-80
2022/05/01 11:23:00;;;;;;;;;;;;;;;;;;5006406;28;19913;-79
2022/05/01 11:25:26;;;;;;;;;;;;;;;;;;5001583;28;19951;-79
2022/05/01 11:27:52;;;;;;;;;;;;;;;;;;5002335;28;20004;-79
2022/05/01 11:30:22;;;;;;;;;;;;;;;;;;5016805;28;19951;-79
2022/05/01 11:32:48;;;;;;;;;;;;;;;;;;5003135;28;19925;-80
2022/05/01 11:35:14;;;;;;;;;;;;;;;;;;5003662;28;19921;-80
2022/05/01 11:37:40;;;;;;;;;;;;;;;;;;5002796;28;20208;-79
2022/05/01 11:40:06;;;;;;;;;;;;;;;;;;5002400;28;19944;-79
2022/05/01 11:42:32;;;;;;;;;;;;;;;;;;5019013;28;19921;-80
2022/05/01 11:44:58;;;;;;;;;;;;;;;;;;5017450;28;19921;-79
2022/05/01 11:47:24;;;;;;;;;;;;;;;;;;5013476;28;19940;-80
2022/05/01 11:49:50;;;;;;;;;;;;;;;;;;5018332;28;19921;-80
2022/05/01 11:52:16;;;;;;;;;;;;;;;;;;5018358;28;20106;-80
2022/05/01 11:54:42;;;;;;;;;;;;;;;;;;5017087;28;19998;-79
2022/05/01 12:02:38;;;;;;;;;;;;;;;;;;5022259;28;20288;-80
2022/05/01 12:05:04;;;;;;;;;;;;;;;;;;5004930;28;19921;-80
2022/05/01 12:07:30;;;;;;;;;;;;;;;;;;5008669;28;19921;-79
2022/05/01 12:09:56;;;;;;;;;;;;;;;;;;5004756;28;19921;-79
2022/05/01 12:12:22;;;;;;;;;;;;;;;;;;5022855;28;20491;-79
2022/05/01 12:14:48;;;;;;;;;;;;;;;;;;4991917;28;19992;-79
2022/05/01 12:17:16;;;;;;;;;;;;;;;;;;5014147;28;20324;-80
2022/05/01 12:19:43;;;;;;;;;;;;;;;;;;5013606;28;19917;-79
2022/05/01 12:22:09;;;;;;;;;;;;;;;;;;4998439;28;20420;-80
2022/05/01 12:24:35;;;;;;;;;;;;;;;;;;5013808;28;19956;-80
2022/05/01 12:27:01;;;;;;;;;;;;;;;;;;4997287;28;19955;-80
2022/05/01 12:29:27;;;;;;;;;;;;;;;;;;5017908;28;19988;-79
2022/05/01 12:31:53;;;;;;;;;;;;;;;;;;5015735;28;19913;-79
2022/05/01 12:34:18;;;;;;;;;;;;;;;;;;4997358;28;19924;-79
2022/05/01 12:36:44;;;;;;;;;;;;;;;;;;5012162;28;19967;-79
2022/05/01 12:39:10;;;;;;;;;;;;;;;;;;5014057;28;19975;-80
2022/05/01 12:44:21;;;;;;;;;;;;;;;;;;5010624;28;19933;-79
2022/05/01 12:46:47;;;;;;;;;;;;;;;;;;5016225;28;19914;-80
2022/05/01 12:49:13;;;;;;;;;;;;;;;;;;4999610;28;20337;-79
2022/05/01 12:51:42;;;;;;;;;;;;;;;;;;5013198;28;20422;-80
2022/05/01 12:54:08;;;;;;;;;;;;;;;;;;5015622;28;19936;-80
2022/05/01 12:56:34;;;;;;;;;;;;;;;;;;5002719;28;19948;-79
2022/05/01 12:59:00;;;;;;;;;;;;;;;;;;5003971;28;19913;-80
2022/05/01 13:01:29;;;;;;;;;;;;;;;;;;4995472;28;19913;-80
2022/05/01 13:03:55;;;;;;;;;;;;;;;;;;4997077;28;20542;-79
2022/05/01 13:06:21;;;;;;;;;;;;;;;;;;4998186;28;19921;-80
2022/05/01 13:08:47;;;;;;;;;;;;;;;;;;4998489;28;19914;-79
2022/05/01 13:11:13;;;;;;;;;;;;;;;;;;4994055;28;19972;-79
2022/05/01 13:13:39;;;;;;;;;;;;;;;;;;5029968;28;19922;-79
2022/05/01 13:16:05;;;;;;;;;;;;;;;;;;5022949;28;19971;-79
2022/05/01 13:18:31;;;;;;;;;;;;;;;;;;4998692;28;19936;-80
2022/05/01 13:20:57;;;;;;;;;;;;;;;;;;5003517;28;19917;-79
2022/05/01 13:23:29;;;;;;;;;;;;;;;;;;5000809;28;19917;-79
2022/05/01 13:25:55;;;;;;;;;;;;;;;;;;4999694;28;20262;-79
2022/05/01 13:28:21;;;;;;;;;;;;;;;;;;5014769;28;19941;-79
2022/05/01 13:30:47;;;;;;;;;;;;;;;;;;4999064;28;19913;-79
2022/05/01 13:33:13;;;;;;;;;;;;;;;;;;4997696;28;19921;-80
2022/05/01 13:35:39;;;;;;;;;;;;;;;;;;5018823;28;19917;-79
2022/05/01 13:38:05;;;;;;;;;;;;;;;;;;5028873;28;19917;-79
2022/05/01 13:46:00;;;;;;;;;;;;;;;;;;5018139;28;19924;-80
2022/05/01 13:48:26;;;;;;;;;;;;;;;;;;5002503;28;19921;-79
2022/05/01 13:50:52;;;;;;;;;;;;;;;;;;5029031;28;19995;-80
2022/05/01 13:53:18;;;;;;;;;;;;;;;;;;5021946;28;19936;-80
2022/05/01 13:55:44;;;;;;;;;;;;;;;;;;5021238;28;20284;-80
2022/05/01 13:58:10;;;;;;;;;;;;;;;;;;5022793;28;19937;-80
2022/05/01 14:00:36;;;;;;;;;;;;;;;;;;5025775;28;19965;-79
2022/05/01 14:03:07;;;;;;;;;;;;;;;;;;5005100;28;19960;-79
2022/05/01 14:05:33;;;;;;;;;;;;;;;;;;4997552;28;20514;-80
2022/05/01 14:07:59;;;;;;;;;;;;;;;;;;5004125;28;19952;-80
2022/05/01 14:10:25;;;;;;;;;;;;;;;;;;5029228;28;20148;-78
2022/05/01 14:12:51;;;;;;;;;;;;;;;;;;5028988;28;19924;-80
2022/05/01 14:15:17;;;;;;;;;;;;;;;;;;5023212;28;20008;-79
2022/05/01 14:17:43;;;;;;;;;;;;;;;;;;5029005;28;20008;-79
2022/05/01 14:20:09;;;;;;;;;;;;;;;;;;5030747;28;19982;-79
2022/05/01 14:22:35;;;;;;;;;;;;;;;;;;5024043;28;19913;-79
2022/05/01 14:25:01;;;;;;;;;;;;;;;;;;5010629;28;19947;-79
2022/05/01 14:27:27;;;;;;;;;;;;;;;;;;5016626;28;19913;-79
2022/05/01 14:29:53;;;;;;;;;;;;;;;;;;5010136;28;19914;-79
2022/05/01 14:32:22;;;;;;;;;;;;;;;;;;5011028;28;20392;-81
2022/05/01 14:34:47;;;;;;;;;;;;;;;;;;5028604;28;19929;-80
2022/05/01 14:37:13;;;;;;;;;;;;;;;;;;5021531;28;19913;-80
2022/05/01 14:39:39;;;;;;;;;;;;;;;;;;5016488;28;19967;-79
2022/05/01 14:42:05;;;;;;;;;;;;;;;;;;5020123;28;19945;-79
2022/05/01 14:44:31;;;;;;;;;;;;;;;;;;5018920;28;19991;-79
2022/05/01 14:46:57;;;;;;;;;;;;;;;;;;5000850;28;19917;-80
2022/05/01 14:49:23;;;;;;;;;;;;;;;;;;4998213;28;19910;-80
2022/05/01 14:51:49;;;;;;;;;;;;;;;;;;5030034;28;19921;-80
2022/05/01 14:54:15;;;;;;;;;;;;;;;;;;4996725;28;19921;-79
2022/05/01 14:56:41;;;;;;;;;;;;;;;;;;5024790;28;20404;-80
2022/05/01 15:07:21;;;;;;;;;;;;;;;;;;5031412;28;19989;-80
2022/05/01 15:09:49;;;;;;;;;;;;;;;;;;5032494;28;19944;-79
2022/05/01 15:12:16;;;;;;;;;;;;;;;;;;5028326;28;19917;-79
2022/05/01 15:14:42;;;;;;;;;;;;;;;;;;5029908;28;19913;-80
2022/05/01 15:17:08;;;;;;;;;;;;;;;;;;5032292;28;19927;-79
2022/05/01 15:19:34;;;;;;;;;;;;;;;;;;5043469;28;20334;-80
2022/05/01 15:24:44;;;;;;;;;;;;;;;;;;5043559;28;20319;-80
2022/05/01 15:27:11;;;;;;;;;;;;;;;;;;5041423;28;19916;-81
2022/05/01 15:29:37;;;;;;;;;;;;;;;;;;5045229;28;19916;-81
2022/05/01 15:32:03;;;;;;;;;;;;;;;;;;5040873;28;19913;-80
2022/05/01 15:34:33;;;;;;;;;;;;;;;;;;5031793;28;19921;-79
2022/05/01 15:36:59;;;;;;;;;;;;;;;;;;5042142;28;19913;-83
2022/05/01 15:39:26;;;;;;;;;;;;;;;;;;5023347;28;19970;-83
2022/05/01 15:41:52;;;;;;;;;;;;;;;;;;5025059;28;19921;-83
2022/05/01 15:44:18;;;;;;;;;;;;;;;;;;5035016;28;19909;-81
2022/05/01 15:46:55;;;;;;;;;;;;;;;;;;5045325;28;19923;-84
2022/05/01 15:54:51;;;;;;;;;;;;;;;;;;5061246;28;19973;-81
2022/05/01 15:57:17;;;;;;;;;;;;;;;;;;5066070;28;19939;-83
2022/05/01 15:59:43;;;;;;;;;;;;;;;;;;5055612;28;19920;-82
2022/05/01 16:02:09;;;;;;;;;;;;;;;;;;5046290;28;20418;-79
2022/05/01 16:04:36;;;;;;;;;;;;;;;;;;5058965;28;19917;-82
2022/05/01 16:07:02;;;;;;;;;;;;;;;;;;5045263;28;19913;-83
2022/05/01 16:09:27;;;;;;;;;;;;;;;;;;5053160;28;19913;-78
2022/05/01 16:11:55;;;;;;;;;;;;;;;;;;5041184;28;19928;-77
2022/05/01 16:14:23;;;;;;;;;;;;;;;;;;5022102;28;19917;-79
2022/05/01 16:16:49;;;;;;;;;;;;;;;;;;5006534;28;19925;-80
2022/05/01 16:19:18;;;;;;;;;;;;;;;;;;5006883;28;19921;-80
2022/05/01 16:21:44;;;;;;;;;;;;;;;;;;5022157;28;20261;-80
2022/05/01 16:24:10;;;;;;;;;;;;;;;;;;5016560;28;20028;-81
2022/05/01 16:26:39;;;;;;;;;;;;;;;;;;5022282;28;20353;-80
2022/05/01 16:29:05;;;;;;;;;;;;;;;;;;5002229;28;20396;-80
2022/05/01 16:31:31;;;;;;;;;;;;;;;;;;5021279;28;19968;-80
2022/05/01 16:34:00;;;;;;;;;;;;;;;;;;5007005;28;19964;-80
2022/05/01 16:36:26;;;;;;;;;;;;;;;;;;4999982;28;20016;-80
2022/05/01 16:38:52;;;;;;;;;;;;;;;;;;5016072;28;20301;-80
2022/05/01 16:41:18;;;;;;;;;;;;;;;;;;5017920;28;19955;-80
2022/05/01 16:43:44;;;;;;;;;;;;;;;;;;5007105;28;19956;-80
2022/05/01 16:46:10;;;;;;;;;;;;;;;;;;5017580;28;20334;-80
2022/05/01 16:48:37;;;;;;;;;;;;;;;;;;5001278;28;19917;-80
2022/05/01 16:51:04;;;;;;;;;;;;;;;;;;5020261;28;19995;-80
2022/05/01 16:53:30;;;;;;;;;;;;;;;;;;5001045;28;19917;-80
2022/05/01 16:55:56;;;;;;;;;;;;;;;;;;5014755;28;19937;-80
2022/05/01 16:58:25;;;;;;;;;;;;;;;;;;5011712;28;20367;-80
2022/05/01 17:00:53;;;;;;;;;;;;;;;;;;5014076;28;20490;-80
2022/05/01 17:03:19;;;;;;;;;;;;;;;;;;4995092;28;20349;-80
2022/05/01 17:05:45;;;;;;;;;;;;;;;;;;5014670;28;20358;-80
2022/05/01 17:08:11;;;;;;;;;;;;;;;;;;5019170;28;20007;-80
2022/05/01 17:10:37;;;;;;;;;;;;;;;;;;5018536;28;19924;-80
2022/05/01 17:13:03;;;;;;;;;;;;;;;;;;5021184;28;19921;-80
2022/05/01 17:15:28;;;;;;;;;;;;;;;;;;5003856;28;19948;-80
2022/05/01 17:17:55;;;;;;;;;;;;;;;;;;5020619;28;19925;-80
2022/05/01 17:20:21;;;;;;;;;;;;;;;;;;5000503;28;19917;-80
2022/05/01 17:22:47;;;;;;;;;;;;;;;;;;5021191;28;20368;-80
2022/05/01 17:25:18;;;;;;;;;;;;;;;;;;5001247;28;19925;-80
2022/05/01 17:27:44;;;;;;;;;;;;;;;;;;5000344;28;19924;-80
2022/05/01 17:30:10;;;;;;;;;;;;;;;;;;5030862;28;19921;-80
2022/05/01 17:32:36;;;;;;;;;;;;;;;;;;5019174;28;20450;-80
2022/05/01 17:35:03;;;;;;;;;;;;;;;;;;5007563;28;19963;-80
2022/05/01 17:37:29;;;;;;;;;;;;;;;;;;5021337;28;20278;-80